sensor_id;sensor_type;location;lat;lon;timestamp;P1;durP1;ratioP1;P2;durP2;ratioP2
22359;SDS011;11347;52.030;4.690;2023-07-16T07:55:01;15.60;;;5.33;;
22359;SDS011;11347;52.030;4.690;2023-07-16T07:57:28;13.60;;;5.53;;
22359;SDS011;11347;52.030;4.690;2023-07-16T07:59:53;14.90;;;5.23;;
22359;SDS011;11347;52.030;4.690;2023-07-16T08:02:22;20.83;;;5.60;;
22359;SDS011;11347;52.030;4.690;2023-07-16T08:04:49;15.75;;;6.18;;
22359;SDS011;11347;52.030;4.690;2023-07-16T08:07:18;18.77;;;6.43;;
22359;SDS011;11347;52.030;4.690;2023-07-16T08:09:45;14.33;;;5.70;;
22359;SDS011;11347;52.030;4.690;2023-07-16T08:12:10;16.58;;;6.05;;
22359;SDS011;11347;52.030;4.690;2023-07-16T08:14:36;16.47;;;6.23;;
22359;SDS011;11347;52.030;4.690;2023-07-16T08:17:01;18.58;;;6.55;;
22359;SDS011;11347;52.030;4.690;2023-07-16T08:19:27;17.50;;;5.82;;
22359;SDS011;11347;52.030;4.690;2023-07-16T08:21:53;15.88;;;5.53;;
22359;SDS011;11347;52.030;4.690;2023-07-16T08:24:18;11.93;;;5.13;;
22359;SDS011;11347;52.030;4.690;2023-07-16T08:26:44;14.80;;;5.40;;
22359;SDS011;11347;52.030;4.690;2023-07-16T08:29:10;16.23;;;4.63;;
22359;SDS011;11347;52.030;4.690;2023-07-16T08:31:35;14.00;;;5.60;;
22359;SDS011;11347;52.030;4.690;2023-07-16T08:34:01;17.52;;;6.15;;
22359;SDS011;11347;52.030;4.690;2023-07-16T08:36:26;13.15;;;5.57;;
22359;SDS011;11347;52.030;4.690;2023-07-16T08:38:52;14.23;;;5.32;;
22359;SDS011;11347;52.030;4.690;2023-07-16T08:41:17;13.37;;;5.50;;
22359;SDS011;11347;52.030;4.690;2023-07-16T08:43:45;14.07;;;5.57;;
22359;SDS011;11347;52.030;4.690;2023-07-16T08:46:12;16.42;;;5.75;;
22359;SDS011;11347;52.030;4.690;2023-07-16T08:48:38;14.95;;;5.60;;
22359;SDS011;11347;52.030;4.690;2023-07-16T08:51:03;14.97;;;5.70;;
22359;SDS011;11347;52.030;4.690;2023-07-16T08:53:31;14.02;;;5.80;;
22359;SDS011;11347;52.030;4.690;2023-07-16T08:55:56;16.07;;;6.30;;
22359;SDS011;11347;52.030;4.690;2023-07-16T08:58:23;17.17;;;5.95;;
22359;SDS011;11347;52.030;4.690;2023-07-16T09:00:49;13.32;;;5.32;;
22359;SDS011;11347;52.030;4.690;2023-07-16T09:03:16;15.30;;;5.47;;
22359;SDS011;11347;52.030;4.690;2023-07-16T09:05:42;19.00;;;5.45;;
22359;SDS011;11347;52.030;4.690;2023-07-16T09:08:09;18.15;;;5.80;;
22359;SDS011;11347;52.030;4.690;2023-07-16T09:10:35;17.25;;;5.93;;
22359;SDS011;11347;52.030;4.690;2023-07-16T09:13:01;15.57;;;5.60;;
22359;SDS011;11347;52.030;4.690;2023-07-16T09:15:27;15.82;;;5.57;;
22359;SDS011;11347;52.030;4.690;2023-07-16T09:17:54;15.50;;;5.80;;
22359;SDS011;11347;52.030;4.690;2023-07-16T09:20:20;15.30;;;5.43;;
22359;SDS011;11347;52.030;4.690;2023-07-16T09:22:48;13.20;;;5.40;;
22359;SDS011;11347;52.030;4.690;2023-07-16T09:25:14;14.40;;;4.67;;
22359;SDS011;11347;52.030;4.690;2023-07-16T09:27:40;16.50;;;5.60;;
22359;SDS011;11347;52.030;4.690;2023-07-16T09:30:06;13.43;;;4.68;;
22359;SDS011;11347;52.030;4.690;2023-07-16T09:32:35;12.90;;;5.10;;
22359;SDS011;11347;52.030;4.690;2023-07-16T09:35:10;16.08;;;5.50;;
22359;SDS011;11347;52.030;4.690;2023-07-16T09:37:37;13.80;;;4.97;;
22359;SDS011;11347;52.030;4.690;2023-07-16T09:40:04;13.65;;;4.88;;
22359;SDS011;11347;52.030;4.690;2023-07-16T09:42:41;11.60;;;4.57;;
22359;SDS011;11347;52.030;4.690;2023-07-16T09:45:08;11.93;;;4.18;;
22359;SDS011;11347;52.030;4.690;2023-07-16T09:47:37;11.77;;;3.78;;
22359;SDS011;11347;52.030;4.690;2023-07-16T09:50:03;11.43;;;3.90;;
22359;SDS011;11347;52.030;4.690;2023-07-16T09:52:31;12.15;;;4.05;;
22359;SDS011;11347;52.030;4.690;2023-07-16T09:55:03;11.27;;;3.80;;
22359;SDS011;11347;52.030;4.690;2023-07-16T09:57:35;10.83;;;4.00;;
22359;SDS011;11347;52.030;4.690;2023-07-16T10:00:03;11.73;;;4.53;;
22359;SDS011;11347;52.030;4.690;2023-07-16T10:02:37;11.30;;;4.30;;
22359;SDS011;11347;52.030;4.690;2023-07-16T10:05:17;16.10;;;5.07;;
22359;SDS011;11347;52.030;4.690;2023-07-16T10:07:54;12.17;;;3.87;;
22359;SDS011;11347;52.030;4.690;2023-07-16T10:10:27;12.57;;;4.27;;
22359;SDS011;11347;52.030;4.690;2023-07-16T10:13:08;12.67;;;4.50;;
22359;SDS011;11347;52.030;4.690;2023-07-16T10:15:36;15.00;;;4.50;;
22359;SDS011;11347;52.030;4.690;2023-07-16T10:18:01;13.57;;;4.73;;
22359;SDS011;11347;52.030;4.690;2023-07-16T10:20:28;13.32;;;4.68;;
22359;SDS011;11347;52.030;4.690;2023-07-16T10:22:53;11.55;;;4.53;;
22359;SDS011;11347;52.030;4.690;2023-07-16T10:27:48;11.97;;;4.10;;
22359;SDS011;11347;52.030;4.690;2023-07-16T10:30:16;10.73;;;3.92;;
22359;SDS011;11347;52.030;4.690;2023-07-16T10:32:42;11.07;;;3.90;;
22359;SDS011;11347;52.030;4.690;2023-07-16T10:35:08;11.23;;;4.10;;
22359;SDS011;11347;52.030;4.690;2023-07-16T10:37:35;11.02;;;3.65;;
22359;SDS011;11347;52.030;4.690;2023-07-16T10:40:01;10.70;;;4.05;;
22359;SDS011;11347;52.030;4.690;2023-07-16T10:42:28;11.55;;;4.00;;
22359;SDS011;11347;52.030;4.690;2023-07-16T10:44:57;9.02;;;3.28;;
22359;SDS011;11347;52.030;4.690;2023-07-16T10:47:32;11.27;;;3.30;;
22359;SDS011;11347;52.030;4.690;2023-07-16T10:50:00;9.07;;;3.15;;
22359;SDS011;11347;52.030;4.690;2023-07-16T10:52:28;10.43;;;3.00;;
22359;SDS011;11347;52.030;4.690;2023-07-16T10:54:54;12.10;;;3.10;;
22359;SDS011;11347;52.030;4.690;2023-07-16T10:57:22;9.20;;;3.05;;
22359;SDS011;11347;52.030;4.690;2023-07-16T10:59:50;8.43;;;3.10;;
22359;SDS011;11347;52.030;4.690;2023-07-16T11:02:17;8.98;;;3.08;;
22359;SDS011;11347;52.030;4.690;2023-07-16T11:04:44;11.10;;;3.25;;
22359;SDS011;11347;52.030;4.690;2023-07-16T11:07:11;8.45;;;2.90;;
22359;SDS011;11347;52.030;4.690;2023-07-16T11:09:44;9.05;;;3.10;;
22359;SDS011;11347;52.030;4.690;2023-07-16T11:12:15;10.38;;;3.17;;
22359;SDS011;11347;52.030;4.690;2023-07-16T11:14:42;9.38;;;2.83;;
22359;SDS011;11347;52.030;4.690;2023-07-16T11:17:10;9.65;;;2.75;;
22359;SDS011;11347;52.030;4.690;2023-07-16T11:19:37;9.07;;;2.90;;
22359;SDS011;11347;52.030;4.690;2023-07-16T11:22:04;8.82;;;2.90;;
22359;SDS011;11347;52.030;4.690;2023-07-16T11:24:41;8.15;;;2.70;;
22359;SDS011;11347;52.030;4.690;2023-07-16T11:27:20;12.17;;;2.70;;
22359;SDS011;11347;52.030;4.690;2023-07-16T11:29:47;8.07;;;2.80;;
22359;SDS011;11347;52.030;4.690;2023-07-16T11:35:00;9.23;;;2.57;;
22359;SDS011;11347;52.030;4.690;2023-07-16T11:37:28;7.07;;;2.50;;
22359;SDS011;11347;52.030;4.690;2023-07-16T11:40:04;7.97;;;2.40;;
22359;SDS011;11347;52.030;4.690;2023-07-16T11:42:35;7.90;;;2.47;;
22359;SDS011;11347;52.030;4.690;2023-07-16T11:45:04;9.10;;;2.30;;
22359;SDS011;11347;52.030;4.690;2023-07-16T11:47:40;11.73;;;2.20;;
22359;SDS011;11347;52.030;4.690;2023-07-16T11:50:06;7.23;;;2.10;;
22359;SDS011;11347;52.030;4.690;2023-07-16T11:52:32;12.47;;;2.10;;
22359;SDS011;11347;52.030;4.690;2023-07-16T11:54:58;11.63;;;2.13;;
22359;SDS011;11347;52.030;4.690;2023-07-16T11:57:25;9.27;;;2.30;;
22359;SDS011;11347;52.030;4.690;2023-07-16T11:59:51;5.87;;;1.90;;
22359;SDS011;11347;52.030;4.690;2023-07-16T12:02:17;7.00;;;1.33;;
22359;SDS011;11347;52.030;4.690;2023-07-16T12:04:43;8.33;;;2.37;;
22359;SDS011;11347;52.030;4.690;2023-07-16T13:07:51;10.30;;;2.40;;
22359;SDS011;11347;52.030;4.690;2023-07-16T13:10:17;13.10;;;1.87;;
22359;SDS011;11347;52.030;4.690;2023-07-16T13:12:43;13.23;;;1.80;;
22359;SDS011;11347;52.030;4.690;2023-07-16T13:15:09;10.23;;;1.67;;
22359;SDS011;11347;52.030;4.690;2023-07-16T13:17:35;9.60;;;1.60;;
22359;SDS011;11347;52.030;4.690;2023-07-16T13:20:02;12.07;;;2.23;;
22359;SDS011;11347;52.030;4.690;2023-07-16T13:51:37;8.23;;;1.93;;
22359;SDS011;11347;52.030;4.690;2023-07-16T13:54:02;7.57;;;1.50;;
22359;SDS011;11347;52.030;4.690;2023-07-16T13:56:28;8.93;;;1.93;;
22359;SDS011;11347;52.030;4.690;2023-07-16T13:58:53;10.77;;;2.17;;
22359;SDS011;11347;52.030;4.690;2023-07-16T14:01:19;9.13;;;2.10;;
22359;SDS011;11347;52.030;4.690;2023-07-16T14:03:46;6.93;;;1.83;;
22359;SDS011;11347;52.030;4.690;2023-07-16T14:06:12;10.98;;;2.30;;
22359;SDS011;11347;52.030;4.690;2023-07-16T14:08:37;10.50;;;2.20;;
22359;SDS011;11347;52.030;4.690;2023-07-16T14:11:03;9.27;;;2.08;;
22359;SDS011;11347;52.030;4.690;2023-07-16T14:13:29;11.15;;;2.17;;
22359;SDS011;11347;52.030;4.690;2023-07-16T14:15:54;11.18;;;2.22;;
22359;SDS011;11347;52.030;4.690;2023-07-16T14:18:20;11.25;;;2.60;;
22359;SDS011;11347;52.030;4.690;2023-07-16T14:20:45;11.10;;;2.30;;
22359;SDS011;11347;52.030;4.690;2023-07-16T14:23:11;11.23;;;2.50;;
22359;SDS011;11347;52.030;4.690;2023-07-16T14:25:36;12.47;;;2.17;;
22359;SDS011;11347;52.030;4.690;2023-07-16T14:28:02;12.93;;;2.03;;
22359;SDS011;11347;52.030;4.690;2023-07-16T14:30:28;13.07;;;2.17;;
22359;SDS011;11347;52.030;4.690;2023-07-16T14:32:54;12.93;;;1.90;;
22359;SDS011;11347;52.030;4.690;2023-07-16T14:35:20;13.50;;;2.07;;
22359;SDS011;11347;52.030;4.690;2023-07-16T14:37:46;9.47;;;1.67;;
22359;SDS011;11347;52.030;4.690;2023-07-16T14:40:12;11.67;;;2.30;;
22359;SDS011;11347;52.030;4.690;2023-07-16T14:42:37;11.13;;;2.27;;
22359;SDS011;11347;52.030;4.690;2023-07-16T14:45:03;17.90;;;2.23;;
22359;SDS011;11347;52.030;4.690;2023-07-16T14:47:30;12.97;;;2.33;;
22359;SDS011;11347;52.030;4.690;2023-07-16T14:49:55;8.43;;;1.97;;
22359;SDS011;11347;52.030;4.690;2023-07-16T14:52:21;13.67;;;2.10;;
22359;SDS011;11347;52.030;4.690;2023-07-16T14:54:46;16.97;;;2.77;;
22359;SDS011;11347;52.030;4.690;2023-07-16T14:57:12;11.60;;;2.23;;
22359;SDS011;11347;52.030;4.690;2023-07-16T14:59:37;12.93;;;2.37;;
22359;SDS011;11347;52.030;4.690;2023-07-16T15:02:03;15.03;;;2.33;;
22359;SDS011;11347;52.030;4.690;2023-07-16T15:04:29;14.10;;;2.60;;
22359;SDS011;11347;52.030;4.690;2023-07-16T15:06:55;13.57;;;2.37;;
22359;SDS011;11347;52.030;4.690;2023-07-16T15:09:21;9.43;;;2.10;;
22359;SDS011;11347;52.030;4.690;2023-07-16T15:11:47;15.77;;;2.37;;
22359;SDS011;11347;52.030;4.690;2023-07-16T15:14:12;17.40;;;2.30;;
22359;SDS011;11347;52.030;4.690;2023-07-16T15:16:38;13.40;;;2.50;;
22359;SDS011;11347;52.030;4.690;2023-07-16T15:19:03;10.90;;;2.00;;
22359;SDS011;11347;52.030;4.690;2023-07-16T15:21:29;16.17;;;3.10;;
22359;SDS011;11347;52.030;4.690;2023-07-16T15:23:54;13.57;;;2.30;;
22359;SDS011;11347;52.030;4.690;2023-07-16T15:26:20;11.47;;;2.37;;
22359;SDS011;11347;52.030;4.690;2023-07-16T15:28:45;14.17;;;2.50;;
22359;SDS011;11347;52.030;4.690;2023-07-16T15:31:11;12.47;;;2.60;;
22359;SDS011;11347;52.030;4.690;2023-07-16T15:33:37;15.53;;;2.43;;
22359;SDS011;11347;52.030;4.690;2023-07-16T15:36:03;11.73;;;2.50;;
22359;SDS011;11347;52.030;4.690;2023-07-16T15:38:28;13.80;;;2.47;;
22359;SDS011;11347;52.030;4.690;2023-07-16T15:40:54;14.77;;;2.40;;
22359;SDS011;11347;52.030;4.690;2023-07-16T15:43:20;11.67;;;2.33;;
22359;SDS011;11347;52.030;4.690;2023-07-16T15:45:45;15.87;;;2.30;;
22359;SDS011;11347;52.030;4.690;2023-07-16T15:48:11;17.33;;;2.60;;
22359;SDS011;11347;52.030;4.690;2023-07-16T15:50:37;14.40;;;2.50;;
22359;SDS011;11347;52.030;4.690;2023-07-16T15:53:03;11.67;;;2.93;;
22359;SDS011;11347;52.030;4.690;2023-07-16T15:55:28;17.77;;;2.87;;
22359;SDS011;11347;52.030;4.690;2023-07-16T15:57:54;14.53;;;2.47;;
22359;SDS011;11347;52.030;4.690;2023-07-16T16:00:21;11.43;;;2.30;;
22359;SDS011;11347;52.030;4.690;2023-07-16T16:02:47;17.80;;;2.70;;
22359;SDS011;11347;52.030;4.690;2023-07-16T16:05:14;15.80;;;2.40;;
22359;SDS011;11347;52.030;4.690;2023-07-16T16:07:49;11.80;;;2.90;;
22359;SDS011;11347;52.030;4.690;2023-07-16T16:10:39;14.70;;;2.70;;
22359;SDS011;11347;52.030;4.690;2023-07-16T16:13:05;12.67;;;2.40;;
22359;SDS011;11347;52.030;4.690;2023-07-16T16:15:31;12.20;;;2.10;;
22359;SDS011;11347;52.030;4.690;2023-07-16T16:17:57;16.90;;;2.40;;
22359;SDS011;11347;52.030;4.690;2023-07-16T16:20:22;10.63;;;2.23;;
22359;SDS011;11347;52.030;4.690;2023-07-16T16:22:48;14.37;;;2.70;;
22359;SDS011;11347;52.030;4.690;2023-07-16T16:25:13;9.40;;;2.23;;
22359;SDS011;11347;52.030;4.690;2023-07-16T16:27:39;11.07;;;2.00;;
22359;SDS011;11347;52.030;4.690;2023-07-16T16:30:04;15.27;;;1.80;;
22359;SDS011;11347;52.030;4.690;2023-07-16T16:32:31;11.40;;;2.10;;
22359;SDS011;11347;52.030;4.690;2023-07-16T16:34:56;13.13;;;2.37;;
22359;SDS011;11347;52.030;4.690;2023-07-16T16:37:22;10.83;;;2.07;;
22359;SDS011;11347;52.030;4.690;2023-07-16T16:39:48;9.87;;;1.70;;
22359;SDS011;11347;52.030;4.690;2023-07-16T16:42:15;11.93;;;2.30;;
22359;SDS011;11347;52.030;4.690;2023-07-16T16:44:41;10.43;;;1.80;;
22359;SDS011;11347;52.030;4.690;2023-07-16T16:47:07;9.93;;;1.80;;
22359;SDS011;11347;52.030;4.690;2023-07-16T16:49:33;11.93;;;2.13;;
22359;SDS011;11347;52.030;4.690;2023-07-16T16:51:59;15.60;;;1.77;;
22359;SDS011;11347;52.030;4.690;2023-07-16T16:54:25;8.23;;;1.80;;
22359;SDS011;11347;52.030;4.690;2023-07-16T16:56:50;7.20;;;1.70;;
22359;SDS011;11347;52.030;4.690;2023-07-16T16:59:16;8.40;;;1.67;;
22359;SDS011;11347;52.030;4.690;2023-07-16T17:01:41;8.13;;;1.83;;
22359;SDS011;11347;52.030;4.690;2023-07-16T17:04:07;12.30;;;2.00;;
22359;SDS011;11347;52.030;4.690;2023-07-16T17:06:33;8.80;;;1.60;;
22359;SDS011;11347;52.030;4.690;2023-07-16T17:08:58;11.73;;;2.23;;
22359;SDS011;11347;52.030;4.690;2023-07-16T17:11:24;12.27;;;2.20;;
22359;SDS011;11347;52.030;4.690;2023-07-16T17:13:49;10.20;;;2.17;;
22359;SDS011;11347;52.030;4.690;2023-07-16T17:16:15;10.00;;;1.70;;
22359;SDS011;11347;52.030;4.690;2023-07-16T17:18:40;12.77;;;2.00;;
22359;SDS011;11347;52.030;4.690;2023-07-16T17:21:06;7.70;;;1.87;;
22359;SDS011;11347;52.030;4.690;2023-07-16T17:23:31;11.07;;;1.80;;
22359;SDS011;11347;52.030;4.690;2023-07-16T17:25:58;6.07;;;1.53;;
22359;SDS011;11347;52.030;4.690;2023-07-16T17:28:24;7.10;;;1.63;;
22359;SDS011;11347;52.030;4.690;2023-07-16T17:30:49;8.00;;;1.57;;
22359;SDS011;11347;52.030;4.690;2023-07-16T17:33:15;11.87;;;2.10;;
22359;SDS011;11347;52.030;4.690;2023-07-16T17:35:40;14.77;;;2.20;;
22359;SDS011;11347;52.030;4.690;2023-07-16T17:38:06;10.53;;;1.83;;
22359;SDS011;11347;52.030;4.690;2023-07-16T17:40:31;12.57;;;2.40;;
22359;SDS011;11347;52.030;4.690;2023-07-16T17:42:57;12.87;;;2.13;;
22359;SDS011;11347;52.030;4.690;2023-07-16T17:45:23;11.77;;;2.33;;
22359;SDS011;11347;52.030;4.690;2023-07-16T17:47:49;9.33;;;1.77;;
22359;SDS011;11347;52.030;4.690;2023-07-16T17:50:14;11.07;;;2.00;;
22359;SDS011;11347;52.030;4.690;2023-07-16T17:52:40;9.87;;;1.83;;
22359;SDS011;11347;52.030;4.690;2023-07-16T17:55:05;9.60;;;2.13;;
22359;SDS011;11347;52.030;4.690;2023-07-16T17:57:31;14.57;;;2.13;;
22359;SDS011;11347;52.030;4.690;2023-07-16T17:59:57;13.00;;;2.37;;
22359;SDS011;11347;52.030;4.690;2023-07-16T18:02:22;9.20;;;2.07;;
22359;SDS011;11347;52.030;4.690;2023-07-16T18:04:48;12.53;;;2.10;;
22359;SDS011;11347;52.030;4.690;2023-07-16T18:07:17;11.67;;;1.80;;
22359;SDS011;11347;52.030;4.690;2023-07-16T18:09:46;12.07;;;1.90;;
22359;SDS011;11347;52.030;4.690;2023-07-16T18:12:12;10.53;;;2.13;;
22359;SDS011;11347;52.030;4.690;2023-07-16T18:14:37;16.37;;;2.27;;
22359;SDS011;11347;52.030;4.690;2023-07-16T18:17:03;10.43;;;1.63;;
22359;SDS011;11347;52.030;4.690;2023-07-16T18:19:29;11.73;;;2.03;;
22359;SDS011;11347;52.030;4.690;2023-07-16T18:21:57;12.30;;;2.40;;
22359;SDS011;11347;52.030;4.690;2023-07-16T18:24:23;14.10;;;2.80;;
22359;SDS011;11347;52.030;4.690;2023-07-16T18:26:49;14.43;;;2.30;;
22359;SDS011;11347;52.030;4.690;2023-07-16T18:29:15;9.90;;;1.80;;
22359;SDS011;11347;52.030;4.690;2023-07-16T18:31:40;9.63;;;2.17;;
22359;SDS011;11347;52.030;4.690;2023-07-16T18:34:06;11.40;;;1.93;;
22359;SDS011;11347;52.030;4.690;2023-07-16T18:36:31;11.47;;;2.30;;
22359;SDS011;11347;52.030;4.690;2023-07-16T18:38:57;9.20;;;2.33;;
22359;SDS011;11347;52.030;4.690;2023-07-16T18:41:22;18.43;;;2.40;;
22359;SDS011;11347;52.030;4.690;2023-07-16T18:43:48;15.27;;;2.00;;
22359;SDS011;11347;52.030;4.690;2023-07-16T18:46:13;11.00;;;2.00;;
22359;SDS011;11347;52.030;4.690;2023-07-16T18:48:39;13.07;;;2.10;;
22359;SDS011;11347;52.030;4.690;2023-07-16T18:51:05;11.00;;;2.03;;
22359;SDS011;11347;52.030;4.690;2023-07-16T18:53:31;12.33;;;2.10;;
22359;SDS011;11347;52.030;4.690;2023-07-16T18:55:58;16.33;;;2.40;;
22359;SDS011;11347;52.030;4.690;2023-07-16T18:58:24;12.80;;;2.00;;
22359;SDS011;11347;52.030;4.690;2023-07-16T19:00:53;13.65;;;2.00;;
22359;SDS011;11347;52.030;4.690;2023-07-16T19:03:18;16.63;;;2.40;;
22359;SDS011;11347;52.030;4.690;2023-07-16T19:05:44;15.73;;;2.37;;
22359;SDS011;11347;52.030;4.690;2023-07-16T19:08:10;10.50;;;2.17;;
22359;SDS011;11347;52.030;4.690;2023-07-16T19:10:36;11.63;;;2.27;;
22359;SDS011;11347;52.030;4.690;2023-07-16T19:13:04;13.33;;;2.23;;
22359;SDS011;11347;52.030;4.690;2023-07-16T19:15:30;18.03;;;2.67;;
22359;SDS011;11347;52.030;4.690;2023-07-16T19:17:56;15.10;;;2.30;;
22359;SDS011;11347;52.030;4.690;2023-07-16T19:20:22;12.63;;;2.47;;
22359;SDS011;11347;52.030;4.690;2023-07-16T19:22:55;8.73;;;1.96;;
22359;SDS011;11347;52.030;4.690;2023-07-16T19:25:21;10.30;;;2.50;;
22359;SDS011;11347;52.030;4.690;2023-07-16T19:27:46;10.27;;;2.17;;
22359;SDS011;11347;52.030;4.690;2023-07-16T19:30:12;9.20;;;2.30;;
22359;SDS011;11347;52.030;4.690;2023-07-16T19:32:37;14.33;;;2.57;;
22359;SDS011;11347;52.030;4.690;2023-07-16T19:35:03;9.03;;;2.13;;
22359;SDS011;11347;52.030;4.690;2023-07-16T19:37:29;14.13;;;2.40;;
22359;SDS011;11347;52.030;4.690;2023-07-16T19:39:59;13.27;;;2.50;;
22359;SDS011;11347;52.030;4.690;2023-07-16T19:42:30;14.40;;;2.27;;
22359;SDS011;11347;52.030;4.690;2023-07-16T19:44:57;11.90;;;2.50;;
22359;SDS011;11347;52.030;4.690;2023-07-16T19:47:23;9.67;;;2.20;;
22359;SDS011;11347;52.030;4.690;2023-07-16T19:49:48;10.13;;;2.23;;
22359;SDS011;11347;52.030;4.690;2023-07-16T19:52:14;14.47;;;1.90;;
22359;SDS011;11347;52.030;4.690;2023-07-16T19:54:40;14.47;;;2.23;;
22359;SDS011;11347;52.030;4.690;2023-07-16T19:57:06;11.57;;;2.57;;
22359;SDS011;11347;52.030;4.690;2023-07-16T19:59:31;19.00;;;2.60;;
22359;SDS011;11347;52.030;4.690;2023-07-16T20:01:57;12.37;;;2.50;;
22359;SDS011;11347;52.030;4.690;2023-07-16T20:04:22;15.73;;;2.87;;
22359;SDS011;11347;52.030;4.690;2023-07-16T20:06:48;12.07;;;2.90;;
22359;SDS011;11347;52.030;4.690;2023-07-16T20:09:14;16.37;;;2.53;;
22359;SDS011;11347;52.030;4.690;2023-07-16T20:11:40;11.90;;;2.73;;
22359;SDS011;11347;52.030;4.690;2023-07-16T20:14:05;16.57;;;2.57;;
22359;SDS011;11347;52.030;4.690;2023-07-16T20:16:31;10.43;;;2.20;;
22359;SDS011;11347;52.030;4.690;2023-07-16T20:18:58;15.97;;;2.27;;
22359;SDS011;11347;52.030;4.690;2023-07-16T20:21:24;12.03;;;2.90;;
22359;SDS011;11347;52.030;4.690;2023-07-16T20:23:50;13.50;;;2.50;;
22359;SDS011;11347;52.030;4.690;2023-07-16T20:26:16;17.07;;;2.97;;
22359;SDS011;11347;52.030;4.690;2023-07-16T20:28:42;13.93;;;2.43;;
22359;SDS011;11347;52.030;4.690;2023-07-16T20:31:07;13.63;;;2.27;;
22359;SDS011;11347;52.030;4.690;2023-07-16T20:33:33;13.23;;;2.30;;
22359;SDS011;11347;52.030;4.690;2023-07-16T20:35:59;12.00;;;2.80;;
22359;SDS011;11347;52.030;4.690;2023-07-16T20:38:24;16.03;;;2.53;;
22359;SDS011;11347;52.030;4.690;2023-07-16T20:40:50;10.30;;;2.10;;
22359;SDS011;11347;52.030;4.690;2023-07-16T20:43:16;11.57;;;2.40;;
22359;SDS011;11347;52.030;4.690;2023-07-16T20:45:42;15.97;;;2.60;;
22359;SDS011;11347;52.030;4.690;2023-07-16T20:48:12;11.40;;;2.30;;
22359;SDS011;11347;52.030;4.690;2023-07-16T20:50:40;10.23;;;2.17;;
22359;SDS011;11347;52.030;4.690;2023-07-16T20:53:06;15.33;;;2.63;;
22359;SDS011;11347;52.030;4.690;2023-07-16T20:55:32;8.23;;;2.13;;
22359;SDS011;11347;52.030;4.690;2023-07-16T20:57:59;15.10;;;2.47;;
22359;SDS011;11347;52.030;4.690;2023-07-16T21:00:25;13.13;;;2.07;;
22359;SDS011;11347;52.030;4.690;2023-07-16T21:02:55;11.63;;;1.77;;
22359;SDS011;11347;52.030;4.690;2023-07-16T21:05:28;13.27;;;2.40;;
22359;SDS011;11347;52.030;4.690;2023-07-16T21:07:54;17.63;;;2.47;;
22359;SDS011;11347;52.030;4.690;2023-07-16T21:10:20;8.90;;;2.10;;
22359;SDS011;11347;52.030;4.690;2023-07-16T21:12:49;13.40;;;2.03;;
22359;SDS011;11347;52.030;4.690;2023-07-16T21:15:16;13.57;;;2.70;;
22359;SDS011;11347;52.030;4.690;2023-07-16T21:17:41;11.97;;;2.10;;
22359;SDS011;11347;52.030;4.690;2023-07-16T21:20:07;15.67;;;3.00;;
22359;SDS011;11347;52.030;4.690;2023-07-16T21:22:37;12.33;;;2.00;;
22359;SDS011;11347;52.030;4.690;2023-07-16T21:25:10;16.47;;;2.27;;
22359;SDS011;11347;52.030;4.690;2023-07-16T21:27:46;11.73;;;1.93;;
22359;SDS011;11347;52.030;4.690;2023-07-16T21:30:11;13.50;;;2.57;;
22359;SDS011;11347;52.030;4.690;2023-07-16T21:32:37;14.90;;;2.10;;
22359;SDS011;11347;52.030;4.690;2023-07-16T21:35:03;14.20;;;2.27;;
22359;SDS011;11347;52.030;4.690;2023-07-16T21:37:30;9.67;;;1.83;;
22359;SDS011;11347;52.030;4.690;2023-07-16T21:39:55;12.47;;;2.43;;
22359;SDS011;11347;52.030;4.690;2023-07-16T21:42:21;13.03;;;2.20;;
22359;SDS011;11347;52.030;4.690;2023-07-16T21:44:46;13.27;;;1.93;;
22359;SDS011;11347;52.030;4.690;2023-07-16T21:47:12;18.10;;;2.23;;
22359;SDS011;11347;52.030;4.690;2023-07-16T21:49:37;13.60;;;2.40;;
22359;SDS011;11347;52.030;4.690;2023-07-16T21:52:03;15.50;;;2.60;;
22359;SDS011;11347;52.030;4.690;2023-07-16T21:54:35;15.87;;;2.17;;
22359;SDS011;11347;52.030;4.690;2023-07-16T21:57:01;10.73;;;2.03;;
22359;SDS011;11347;52.030;4.690;2023-07-16T21:59:27;10.77;;;1.97;;
22359;SDS011;11347;52.030;4.690;2023-07-16T22:01:53;12.43;;;2.07;;
22359;SDS011;11347;52.030;4.690;2023-07-16T22:04:18;14.83;;;2.50;;
22359;SDS011;11347;52.030;4.690;2023-07-16T22:06:44;9.27;;;1.87;;
22359;SDS011;11347;52.030;4.690;2023-07-16T22:09:09;12.90;;;2.23;;
22359;SDS011;11347;52.030;4.690;2023-07-16T22:11:35;10.07;;;1.80;;
22359;SDS011;11347;52.030;4.690;2023-07-16T22:14:01;15.10;;;1.93;;
22359;SDS011;11347;52.030;4.690;2023-07-16T22:16:28;14.80;;;2.80;;
22359;SDS011;11347;52.030;4.690;2023-07-16T22:18:55;12.33;;;2.47;;
22359;SDS011;11347;52.030;4.690;2023-07-16T22:21:20;13.97;;;2.20;;
22359;SDS011;11347;52.030;4.690;2023-07-16T22:23:46;15.17;;;2.47;;
22359;SDS011;11347;52.030;4.690;2023-07-16T22:26:12;16.93;;;2.33;;
22359;SDS011;11347;52.030;4.690;2023-07-16T22:28:37;9.43;;;2.07;;
22359;SDS011;11347;52.030;4.690;2023-07-16T22:31:03;13.40;;;1.90;;
22359;SDS011;11347;52.030;4.690;2023-07-16T22:33:29;12.87;;;2.30;;
22359;SDS011;11347;52.030;4.690;2023-07-16T22:35:54;7.20;;;2.00;;
22359;SDS011;11347;52.030;4.690;2023-07-16T22:38:20;14.67;;;2.17;;
22359;SDS011;11347;52.030;4.690;2023-07-16T22:40:45;9.93;;;2.00;;
22359;SDS011;11347;52.030;4.690;2023-07-16T22:43:11;9.37;;;1.87;;
22359;SDS011;11347;52.030;4.690;2023-07-16T22:45:37;7.73;;;2.00;;
22359;SDS011;11347;52.030;4.690;2023-07-16T22:48:03;10.47;;;1.90;;
22359;SDS011;11347;52.030;4.690;2023-07-16T22:50:29;8.07;;;1.93;;
22359;SDS011;11347;52.030;4.690;2023-07-16T22:52:54;9.33;;;2.27;;
22359;SDS011;11347;52.030;4.690;2023-07-16T22:55:20;7.77;;;1.80;;
22359;SDS011;11347;52.030;4.690;2023-07-16T22:57:45;12.07;;;2.10;;
22359;SDS011;11347;52.030;4.690;2023-07-16T23:00:11;10.03;;;2.00;;
22359;SDS011;11347;52.030;4.690;2023-07-16T23:02:38;6.63;;;1.97;;
22359;SDS011;11347;52.030;4.690;2023-07-16T23:05:04;11.70;;;2.00;;
22359;SDS011;11347;52.030;4.690;2023-07-16T23:07:30;5.07;;;1.63;;
22359;SDS011;11347;52.030;4.690;2023-07-16T23:09:56;8.17;;;1.77;;
22359;SDS011;11347;52.030;4.690;2023-07-16T23:12:21;12.23;;;2.30;;
22359;SDS011;11347;52.030;4.690;2023-07-16T23:14:47;13.03;;;2.30;;
22359;SDS011;11347;52.030;4.690;2023-07-16T23:17:12;17.07;;;1.93;;
22359;SDS011;11347;52.030;4.690;2023-07-16T23:19:38;10.60;;;2.03;;
22359;SDS011;11347;52.030;4.690;2023-07-16T23:22:04;10.93;;;2.30;;
22359;SDS011;11347;52.030;4.690;2023-07-16T23:24:31;8.00;;;1.80;;
22359;SDS011;11347;52.030;4.690;2023-07-16T23:26:56;11.03;;;1.83;;
22359;SDS011;11347;52.030;4.690;2023-07-16T23:29:22;14.17;;;2.60;;
22359;SDS011;11347;52.030;4.690;2023-07-16T23:31:47;15.70;;;1.97;;
22359;SDS011;11347;52.030;4.690;2023-07-16T23:34:13;9.80;;;2.00;;
22359;SDS011;11347;52.030;4.690;2023-07-16T23:36:38;8.33;;;1.70;;
22359;SDS011;11347;52.030;4.690;2023-07-16T23:39:04;11.10;;;2.13;;
22359;SDS011;11347;52.030;4.690;2023-07-16T23:41:29;10.83;;;1.83;;
22359;SDS011;11347;52.030;4.690;2023-07-16T23:43:55;4.77;;;1.33;;
22359;SDS011;11347;52.030;4.690;2023-07-16T23:46:21;13.20;;;2.17;;
22359;SDS011;11347;52.030;4.690;2023-07-16T23:48:46;6.93;;;1.60;;
22359;SDS011;11347;52.030;4.690;2023-07-16T23:51:12;9.37;;;1.90;;
22359;SDS011;11347;52.030;4.690;2023-07-16T23:53:37;11.80;;;1.70;;
22359;SDS011;11347;52.030;4.690;2023-07-16T23:56:03;4.73;;;1.50;;
22359;SDS011;11347;52.030;4.690;2023-07-16T23:58:29;7.90;;;1.70;;
